Time;durP1;ratioP1;P1;durP2;ratioP2;P2;SDS_P1;SDS_P2;PMS_P1;PMS_P2;Temp;Humidity;BMP_temperature;BMP_pressure;BME280_temperature;BME280_humidity;BME280_pressure;Samples;Min_cycle;Max_cycle;Signal;HPM_P1;HPM_P2
2022/12/21 00:01:30;;;;;;;;;95.67;71.00;;;;;-0.26;100.00;100419.63;6284271;20;2887910;-53
2022/12/21 00:04:05;;;;;;;;;100.67;71.00;;;;;-0.36;100.00;100418.81;6316994;20;3680512;-52
2022/12/21 00:06:38;;;;;;;;;105.33;77.33;;;;;-0.23;100.00;100420.47;6282837;20;3681673;-53
2022/12/21 00:09:13;;;;;;;;;94.67;76.67;;;;;-0.22;100.00;100406.38;6284191;20;3646099;-52
2022/12/21 00:11:43;;;;;;;;;107.67;89.67;;;;;-0.06;100.00;100406.28;6315238;20;3682728;-54
2022/12/21 00:14:13;;;;;;;;;117.00;97.33;;;;;-0.07;100.00;100400.16;6285821;20;3686777;-52
2022/12/21 00:16:43;;;;;;;;;126.00;98.33;;;;;-0.28;100.00;100403.81;6286783;20;3706604;-51
2022/12/21 00:19:14;;;;;;;;;90.67;68.00;;;;;-0.12;100.00;100407.22;6282685;20;3636837;-52
2022/12/21 00:21:44;;;;;;;;;94.67;68.00;;;;;-0.25;100.00;100401.13;6312769;20;3659649;-53
2022/12/21 00:24:13;;;;;;;;;92.67;69.67;;;;;-0.07;100.00;100399.28;6315974;20;3647161;-52
2022/12/21 00:26:43;;;;;;;;;85.33;65.00;;;;;-0.23;100.00;100403.78;6314971;20;2882679;-51
2022/12/21 00:29:12;;;;;;;;;98.00;70.00;;;;;-0.29;100.00;100399.41;6312370;20;3654408;-52
2022/12/21 00:31:42;;;;;;;;;107.33;86.33;;;;;0.10;100.00;100405.28;6317697;20;3683581;-52
2022/12/21 00:34:17;;;;;;;;;114.33;92.33;;;;;-0.04;100.00;100408.03;6280563;20;3678432;-52
2022/12/21 00:36:50;;;;;;;;;93.00;68.33;;;;;0.07;100.00;100407.09;6314116;20;3648298;-53
2022/12/21 00:39:19;;;;;;;;;91.67;69.00;;;;;-0.09;100.00;100398.41;6312497;20;3637861;-53
2022/12/21 00:41:49;;;;;;;;;85.67;64.67;;;;;0.01;100.00;100389.53;6314922;20;3638909;-54
2022/12/21 00:44:19;;;;;;;;;90.00;67.33;;;;;-0.19;100.00;100389.66;6314752;20;3659714;-53
2022/12/21 00:46:48;;;;;;;;;104.67;75.33;;;;;-0.03;100.00;100388.69;6314916;20;3691996;-53
2022/12/21 00:49:18;;;;;;;;;93.33;68.00;;;;;-0.20;100.00;100380.00;6281423;20;3644074;-52
2022/12/21 00:51:54;;;;;;;;;92.67;70.33;;;;;-0.26;100.00;100375.66;6317543;20;3639860;-54
2022/12/21 00:54:24;;;;;;;;;94.00;69.67;;;;;-0.27;100.00;100373.88;6310977;20;3663856;-53
2022/12/21 00:56:53;;;;;;;;;96.33;67.00;;;;;-0.19;100.00;100378.25;6312722;20;3647170;-54
2022/12/21 00:59:23;;;;;;;;;86.33;67.67;;;;;-0.04;100.00;100378.13;6313981;20;3640967;-53
2022/12/21 01:01:53;;;;;;;;;92.67;68.00;;;;;-0.16;100.00;100388.75;6313707;20;3663877;-52
2022/12/21 01:04:22;;;;;;;;;85.67;64.00;;;;;0.04;100.00;100392.16;6314490;20;3657524;-52
2022/12/21 01:06:52;;;;;;;;;91.00;67.00;;;;;-0.01;100.00;100391.31;6313940;20;3650363;-53
2022/12/21 01:09:21;;;;;;;;;101.33;70.33;;;;;-0.01;100.00;100388.66;6313270;20;3678478;-51
2022/12/21 01:11:51;;;;;;;;;91.67;66.67;;;;;0.12;100.00;100392.97;6314148;20;3632628;-49
2022/12/21 01:14:21;;;;;;;;;94.67;68.67;;;;;0.04;100.00;100397.44;6311969;20;3648202;-51
2022/12/21 01:16:50;;;;;;;;;93.00;72.00;;;;;0.25;100.00;100385.84;6314726;20;3641913;-50
2022/12/21 01:19:20;;;;;;;;;74.00;55.00;;;;;0.39;100.00;100391.00;6313310;20;2892992;-51
2022/12/21 01:21:50;;;;;;;;;82.00;61.33;;;;;0.36;100.00;100386.59;6282196;20;3651336;-52
2022/12/21 01:24:19;;;;;;;;;86.67;64.00;;;;;0.13;100.00;100370.97;6313890;20;2896225;-52
2022/12/21 01:26:49;;;;;;;;;88.33;65.00;;;;;0.28;100.00;100375.22;6311805;20;3644132;-52
2022/12/21 01:29:19;;;;;;;;;85.33;62.33;;;;;0.14;100.00;100364.78;6311639;20;3652338;-53
2022/12/21 01:31:48;;;;;;;;;84.00;61.67;;;;;0.18;100.00;100368.28;6313491;20;3650279;-54
2022/12/21 01:34:18;;;;;;;;;80.00;59.33;;;;;0.15;100.00;100374.47;6311761;20;2890018;-52
2022/12/21 01:36:47;;;;;;;;;85.00;63.33;;;;;0.26;100.00;100360.28;6314796;20;3660699;-56
2022/12/21 01:39:17;;;;;;;;;78.00;57.33;;;;;0.22;99.90;100360.31;6312845;20;2895177;-53
2022/12/21 01:41:46;;;;;;;;;82.33;60.00;;;;;0.57;99.69;100358.25;6315188;20;3650372;-52
2022/12/21 01:45:06;;;;;;;;;79.00;60.00;;;;;0.00;99.57;100358.75;6314307;20;2886232;-55
2022/12/21 01:47:47;;;;;;;;;77.00;56.67;;;;;0.16;100.00;100354.22;6314638;20;3644078;-53
2022/12/21 01:50:43;;;;;;;;;78.67;60.33;;;;;0.26;99.27;100355.88;6309289;20;2879608;-52
2022/12/21 01:53:27;;;;;;;;;79.33;60.67;;;;;0.30;98.67;100362.03;6309189;20;3633959;-51
2022/12/21 01:56:02;;;;;;;;;79.00;58.33;;;;;0.32;98.71;100354.97;6313535;20;2883721;-51
2022/12/21 01:58:33;;;;;;;;;71.00;59.00;;;;;0.39;98.60;100354.88;6307031;20;2871240;-53
2022/12/21 02:01:04;;;;;;;;;77.00;59.00;;;;;0.25;98.21;100348.00;6280270;20;2881550;-50
2022/12/21 02:03:42;;;;;;;;;72.00;56.50;;;;;0.61;98.40;100341.47;6277516;20;2870204;-53
2022/12/21 02:06:33;;;;;;;;;82.33;56.33;;;;;0.54;97.86;100335.38;6284404;20;3656562;-52
2022/12/21 02:09:03;;;;;;;;;77.33;56.33;;;;;0.43;98.18;100326.69;6307681;20;2890923;-53
2022/12/21 02:11:33;;;;;;;;;85.00;59.00;;;;;0.34;98.01;100327.66;6311933;20;3660870;-55
2022/12/21 02:14:03;;;;;;;;;78.33;57.33;;;;;0.43;97.63;100327.56;6313625;20;3649214;-52
2022/12/21 02:17:06;;;;;;;;;62.50;53.50;;;;;0.59;96.97;100317.72;6311139;20;2864940;-53
2022/12/21 02:20:27;;;;;;;;;79.33;56.00;;;;;0.37;95.65;100311.78;6281712;20;3650377;-52
2022/12/21 02:24:04;;;;;;;;;77.50;57.50;;;;;0.34;95.84;100316.19;6310145;20;2869065;-52
2022/12/21 02:27:07;;;;;;;;;79.67;60.00;;;;;0.12;97.14;100308.47;6278720;20;3653466;-52
2022/12/21 02:30:08;;;;;;;;;69.00;53.50;;;;;0.44;95.98;100302.88;6312224;20;2870169;-52
2022/12/21 02:33:21;;;;;;;;;76.00;56.00;;;;;0.30;95.33;100293.38;6281460;20;3635676;-54
2022/12/21 02:36:42;;;;;;;;;65.50;49.00;;;;;0.52;94.55;100294.88;6311145;20;2875310;-54
2022/12/21 02:39:38;;;;;;;;;72.00;53.50;;;;;0.42;94.58;100287.94;6279888;20;2874243;-54
2022/12/21 02:45:57;;;;;;;;;64.00;50.00;;;;;0.20;94.85;100280.25;6281954;20;2839989;-53
2022/12/21 02:49:06;;;;;;;;;69.33;48.67;;;;;0.50;93.09;100278.19;6281482;20;2882672;-54
2022/12/21 02:52:10;;;;;;;;;61.50;44.00;;;;;0.31;92.41;100272.19;6309696;20;2868012;-53
2022/12/21 02:54:41;;;;;;;;;66.00;49.00;;;;;0.30;91.76;100275.75;6279780;20;2873261;-56
2022/12/21 02:57:11;;;;;;;;;59.00;47.50;;;;;0.38;91.70;100280.94;6280983;20;2861755;-53
2022/12/21 02:59:46;;;;;;;;;64.00;48.00;;;;;0.31;91.31;100279.25;6277175;20;2489941;-53
2022/12/21 03:02:44;;;;;;;;;68.00;49.00;;;;;0.24;92.08;100280.19;6278840;20;2884929;-53
2022/12/21 03:05:52;;;;;;;;;55.00;41.33;;;;;0.53;91.33;100275.50;6279353;20;2866088;-54
2022/12/21 03:08:40;;;;;;;;;62.50;45.00;;;;;0.35;90.81;100273.94;6311920;20;2866973;-54
2022/12/21 03:11:09;;;;;;;;;57.50;45.00;;;;;0.21;91.34;100274.09;6278215;20;2499246;-51
2022/12/21 03:13:58;;;;;;;;;63.33;47.00;;;;;0.62;91.39;100275.38;6279554;20;2882704;-53
2022/12/21 03:16:58;;;;;;;;;51.00;44.00;;;;;0.73;89.75;100277.03;6312443;20;2864900;-56
2022/12/21 03:19:45;;;;;;;;;57.50;46.00;;;;;0.85;88.68;100271.59;6275566;20;2494068;-49
2022/12/21 03:23:01;;;;;;;;;63.50;49.00;;;;;0.73;88.96;100272.63;6274753;20;2493025;-54
2022/12/21 03:26:01;;;;;;;;;59.50;48.00;;;;;0.43;88.76;100265.94;6273280;20;2844115;-54
2022/12/21 03:28:35;;;;;;;;;65.50;49.50;;;;;0.68;89.38;100269.16;6277643;20;2878806;-55
2022/12/21 03:31:20;;;;;;;;;68.67;47.33;;;;;0.65;89.55;100267.41;6278819;20;3636744;-51
2022/12/21 03:34:20;;;;;;;;;53.00;41.67;;;;;0.53;90.24;100270.22;6310492;20;2877446;-55
2022/12/21 03:37:17;;;;;;;;;67.67;48.67;;;;;0.60;90.61;100248.09;6310151;20;2880588;-54
2022/12/21 03:40:13;;;;;;;;;65.50;49.50;;;;;0.71;89.97;100252.38;6308507;20;2873305;-55
2022/12/21 03:43:15;;;;;;;;;68.67;47.33;;;;;0.65;90.86;100248.91;6277732;20;2880473;-53
2022/12/21 03:46:12;;;;;;;;;66.00;49.00;;;;;0.53;92.25;100242.94;6309401;20;2880539;-54
2022/12/21 03:49:26;;;;;;;;;71.00;53.00;;;;;0.54;92.17;100236.75;6273099;20;2883755;-52
2022/12/21 03:52:14;;;;;;;;;75.67;52.33;;;;;0.38;93.60;100230.78;6307076;20;2884760;-52
2022/12/21 03:55:24;;;;;;;;;112.33;101.00;;;;;0.19;94.47;100233.63;6308834;20;3683575;-53
2022/12/21 03:57:56;;;;;;;;;222.00;181.67;;;;;0.31;94.68;100232.59;6273909;20;3712796;-52
2022/12/21 04:00:50;;;;;;;;;103.00;86.67;;;;;0.37;94.28;100226.34;6274328;20;3673190;-53
2022/12/21 04:03:30;;;;;;;;;99.67;75.33;;;;;0.18;95.18;100242.41;6275177;20;3672123;-53
2022/12/21 04:06:14;;;;;;;;;158.67;129.00;;;;;0.29;95.49;100241.41;6272893;20;3722131;-52
2022/12/21 04:08:44;;;;;;;;;107.67;91.67;;;;;0.50;94.58;100241.22;6274543;20;3688850;-54
2022/12/21 04:14:02;;;;;;;;;97.00;72.67;;;;;0.38;95.26;100246.63;6278404;20;3666909;-54
2022/12/21 04:16:32;;;;;;;;;94.67;72.33;;;;;0.49;95.15;100251.78;6310462;20;3654826;-52
2022/12/21 04:21:50;;;;;;;;;83.67;58.67;;;;;0.53;96.20;100258.78;6316062;20;3650261;-54
2022/12/21 04:30:00;;;;;;;;;92.33;68.67;;;;;0.84;96.74;100243.41;6312147;20;3648211;-49
2022/12/21 04:32:28;;;;;;;;;60.50;46.50;;;;;0.85;96.50;100234.59;6317878;20;2865941;-55
2022/12/21 04:34:59;;;;;;;;;75.33;56.67;;;;;0.40;96.79;100232.50;6282725;20;2892071;-55
2022/12/21 04:37:31;;;;;;;;;84.67;64.67;;;;;0.59;96.89;100235.78;6315798;20;3630454;-54
2022/12/21 04:40:03;;;;;;;;;85.00;66.33;;;;;0.39;97.25;100243.06;6315522;20;2881596;-51
2022/12/21 04:42:32;;;;;;;;;78.67;55.33;;;;;0.59;97.60;100249.00;6314607;20;3643367;-53
2022/12/21 04:45:02;;;;;;;;;117.00;97.00;;;;;0.46;97.54;100247.41;6315075;20;3682634;-52
2022/12/21 04:47:32;;;;;;;;;89.00;70.67;;;;;0.57;97.01;100240.22;6282482;20;3634639;-54
2022/12/21 04:50:02;;;;;;;;;89.33;63.00;;;;;0.68;96.93;100231.28;6311221;20;3658688;-53
2022/12/21 04:52:31;;;;;;;;;89.33;65.00;;;;;0.41;97.91;100230.72;6311582;20;3645070;-54
2022/12/21 04:55:02;;;;;;;;;92.33;68.33;;;;;0.13;98.83;100224.88;6316059;20;3658610;-51
2022/12/21 04:57:31;;;;;;;;;73.50;55.00;;;;;0.28;99.43;100221.19;6311232;20;2877480;-55
2022/12/21 05:00:01;;;;;;;;;84.33;61.33;;;;;0.36;99.80;100214.06;6281760;20;3655579;-49
2022/12/21 05:02:31;;;;;;;;;88.33;63.33;;;;;0.11;100.00;100209.06;6316495;20;3657551;-53
2022/12/21 05:05:00;;;;;;;;;66.00;49.67;;;;;0.14;100.00;100193.19;6312473;20;2884710;-54
2022/12/21 05:07:30;;;;;;;;;91.00;65.67;;;;;0.17;100.00;100203.69;6314486;20;3641260;-50
2022/12/21 05:10:00;;;;;;;;;118.00;99.67;;;;;0.18;100.00;100194.88;6313081;20;3703415;-53
2022/12/21 05:12:29;;;;;;;;;378.67;270.67;;;;;0.14;100.00;100209.03;6282686;20;3742073;-55
2022/12/21 05:15:00;;;;;;;;;124.00;100.33;;;;;0.08;100.00;100209.09;6283724;20;4347166;-52
2022/12/21 05:17:30;;;;;;;;;171.00;134.33;;;;;0.21;100.00;100205.44;6313665;20;3685675;-50
2022/12/21 05:19:59;;;;;;;;;234.33;194.67;;;;;0.08;100.00;100198.53;6278231;20;3718994;-56
2022/12/21 05:22:29;;;;;;;;;264.75;212.50;;;;;0.09;100.00;100197.63;6282730;20;4456919;-53
2022/12/21 05:24:59;;;;;;;;;119.33;97.67;;;;;0.28;100.00;100200.06;6311776;20;3686754;-53
2022/12/21 05:27:28;;;;;;;;;116.67;95.33;;;;;0.30;100.00;100214.13;6278456;20;3703423;-54
2022/12/21 05:29:57;;;;;;;;;130.00;121.00;;;;;0.25;100.00;100203.63;6312667;20;3694067;-53
2022/12/21 05:32:27;;;;;;;;;106.67;86.33;;;;;0.17;100.00;100198.41;6279110;20;3707690;-54
2022/12/21 05:34:56;;;;;;;;;97.33;76.33;;;;;0.11;100.00;100200.28;6278538;20;3658640;-55
2022/12/21 05:37:27;;;;;;;;;103.33;71.00;;;;;0.27;100.00;100215.03;6313667;20;3676316;-51
2022/12/21 05:39:57;;;;;;;;;94.67;72.00;;;;;0.33;100.00;100187.69;6276541;20;2883843;-52
2022/12/21 05:42:27;;;;;;;;;95.00;67.33;;;;;0.25;100.00;100185.13;6314320;20;3656610;-51
2022/12/21 05:44:56;;;;;;;;;102.67;77.33;;;;;0.17;100.00;100187.00;6310852;20;3683623;-56
2022/12/21 05:47:26;;;;;;;;;109.67;92.67;;;;;0.20;100.00;100203.66;6280433;20;3698287;-53
2022/12/21 05:49:55;;;;;;;;;101.33;78.33;;;;;0.26;100.00;100180.72;6278850;20;3692974;-55
2022/12/21 05:52:26;;;;;;;;;209.25;157.00;;;;;0.24;100.00;100203.63;6278492;20;3713948;-54
2022/12/21 05:54:56;;;;;;;;;121.67;105.00;;;;;0.54;100.00;100194.47;6277469;20;3707576;-51
2022/12/21 05:57:25;;;;;;;;;99.33;75.67;;;;;0.47;100.00;100193.66;6276587;20;3647340;-54
2022/12/21 05:59:55;;;;;;;;;105.67;81.33;;;;;0.42;100.00;100177.00;6314796;20;3688899;-56
2022/12/21 06:02:25;;;;;;;;;105.00;75.00;;;;;0.42;100.00;100177.00;6281548;20;3677461;-53
2022/12/21 06:04:54;;;;;;;;;98.67;70.67;;;;;0.54;100.00;100187.41;6275428;20;3650766;-54
2022/12/21 06:07:24;;;;;;;;;92.00;71.00;;;;;0.39;100.00;100179.69;6310519;20;3642987;-55
2022/12/21 06:09:54;;;;;;;;;105.67;86.67;;;;;0.57;100.00;100197.06;6313482;20;3703381;-54
2022/12/21 06:12:24;;;;;;;;;116.00;92.00;;;;;0.52;100.00;100199.78;6282159;20;3701331;-55
2022/12/21 06:14:53;;;;;;;;;99.67;80.00;;;;;0.40;100.00;100205.22;6280990;20;3662758;-54
2022/12/21 06:17:26;;;;;;;;;97.33;73.33;;;;;0.17;100.00;100203.69;6311307;20;3659750;-54
2022/12/21 06:19:56;;;;;;;;;103.00;80.33;;;;;0.61;100.00;100201.44;6309945;20;3685750;-55
2022/12/21 06:22:26;;;;;;;;;94.33;68.33;;;;;0.37;100.00;100185.00;6276547;20;3656597;-57
2022/12/21 06:24:56;;;;;;;;;99.00;71.00;;;;;0.42;100.00;100198.13;6309250;20;3665919;-54
2022/12/21 06:27:25;;;;;;;;;110.00;91.00;;;;;0.41;100.00;100228.09;6311268;20;3701443;-53
2022/12/21 06:29:55;;;;;;;;;104.00;83.00;;;;;0.59;100.00;100212.03;6276622;20;3696067;-55
2022/12/21 06:32:24;;;;;;;;;97.33;69.33;;;;;0.61;100.00;100198.81;6283744;20;3654521;-55
2022/12/21 06:34:54;;;;;;;;;101.33;77.33;;;;;0.55;100.00;100202.38;6314978;20;3681575;-55
2022/12/21 06:37:24;;;;;;;;;95.00;64.67;;;;;0.67;100.00;100184.63;6283386;20;3654460;-53
2022/12/21 06:39:53;;;;;;;;;94.67;79.00;;;;;0.43;100.00;100190.19;6313600;20;2893054;-49
2022/12/21 06:42:23;;;;;;;;;99.67;77.00;;;;;0.38;100.00;100207.00;6313824;20;3656523;-50
2022/12/21 06:44:52;;;;;;;;;100.33;79.67;;;;;0.46;100.00;100194.56;6315411;20;3655484;-56
2022/12/21 06:47:22;;;;;;;;;115.00;95.67;;;;;0.60;100.00;100192.63;6278373;20;3700355;-54
2022/12/21 06:49:51;;;;;;;;;71.50;48.50;;;;;0.45;100.00;100192.84;6282102;20;2876372;-57
2022/12/21 06:52:22;;;;;;;;;103.67;75.33;;;;;0.37;100.00;100194.66;6280963;20;3688780;-55
2022/12/21 06:54:52;;;;;;;;;103.00;82.00;;;;;0.33;100.00;100206.19;6281278;20;3688781;-50
2022/12/21 06:57:22;;;;;;;;;102.00;81.00;;;;;0.49;100.00;100210.38;6280893;20;3677348;-55
2022/12/21 06:59:52;;;;;;;;;113.00;94.67;;;;;0.41;100.00;100202.53;6279753;20;3688811;-56
2022/12/21 07:02:21;;;;;;;;;102.50;81.75;;;;;0.72;100.00;100190.72;6282814;20;4440841;-55
2022/12/21 07:04:52;;;;;;;;;99.00;77.33;;;;;0.41;100.00;100196.38;6313598;20;3663853;-54
2022/12/21 07:07:22;;;;;;;;;182.33;154.33;;;;;0.25;100.00;100198.34;6311585;20;3726390;-55
2022/12/21 07:09:51;;;;;;;;;101.33;77.67;;;;;0.28;100.00;100197.44;6277891;20;3671074;-55
2022/12/21 07:12:21;;;;;;;;;100.67;76.67;;;;;0.51;100.00;100187.47;6276964;20;3678383;-56
2022/12/21 07:14:50;;;;;;;;;108.33;79.67;;;;;0.15;100.00;100192.28;6313527;20;3696112;-56
2022/12/21 07:17:20;;;;;;;;;125.67;97.67;;;;;0.59;100.00;100196.16;6279013;20;3686280;-55
2022/12/21 07:19:51;;;;;;;;;103.67;78.00;;;;;0.44;100.00;100199.00;6277717;20;3683633;-55
2022/12/21 07:22:21;;;;;;;;;110.33;89.33;;;;;0.77;100.00;100205.63;6279612;20;3698162;-56
2022/12/21 07:24:50;;;;;;;;;132.33;102.33;;;;;0.71;100.00;100202.19;6279302;20;3722136;-55
2022/12/21 07:27:20;;;;;;;;;111.00;88.33;;;;;0.75;100.00;100203.91;6278595;20;3686727;-56
2022/12/21 07:29:50;;;;;;;;;171.25;140.50;;;;;0.54;100.00;100198.00;6277796;20;3719004;-55
2022/12/21 07:32:20;;;;;;;;;102.00;75.33;;;;;0.50;99.10;100196.28;6311200;20;3676291;-51
2022/12/21 07:34:50;;;;;;;;;109.75;85.25;;;;;0.74;99.05;100202.13;6280550;20;3707614;-56
2022/12/21 07:37:21;;;;;;;;;141.50;108.00;;;;;0.60;98.97;100199.69;6277824;20;4492957;-54
2022/12/21 07:39:50;;;;;;;;;131.33;104.00;;;;;0.39;98.96;100191.13;6276188;20;3715886;-56
2022/12/21 07:42:21;;;;;;;;;153.25;131.50;;;;;0.68;98.98;100183.72;6280276;20;3710664;-51
2022/12/21 07:44:52;;;;;;;;;132.25;111.00;;;;;0.75;98.14;100180.13;6275944;20;4473190;-55
2022/12/21 07:47:22;;;;;;;;;139.00;111.75;;;;;0.36;99.26;100185.00;6311785;20;3721212;-52
2022/12/21 07:49:52;;;;;;;;;172.75;138.25;;;;;0.73;100.00;100181.91;6311332;20;4491970;-54
2022/12/21 07:52:22;;;;;;;;;126.00;94.33;;;;;0.74;99.42;100178.34;6279410;20;3695020;-55
2022/12/21 07:54:51;;;;;;;;;106.67;95.00;;;;;0.73;98.70;100172.19;6285464;20;3670488;-55
2022/12/21 07:57:21;;;;;;;;;129.33;103.33;;;;;0.59;98.84;100172.38;6283664;20;3705482;-55
2022/12/21 07:59:50;;;;;;;;;86.33;68.33;;;;;0.53;98.59;100176.88;6283408;20;2880650;-56
2022/12/21 08:02:21;;;;;;;;;105.67;87.33;;;;;0.77;98.72;100179.19;6316286;20;3688869;-55
2022/12/21 08:04:52;;;;;;;;;130.50;108.00;;;;;0.62;98.04;100169.69;6286371;20;3717050;-56
2022/12/21 08:07:21;;;;;;;;;111.67;95.33;;;;;0.48;98.60;100165.50;6317759;20;3678405;-52
2022/12/21 08:09:52;;;;;;;;;142.75;123.75;;;;;0.62;98.73;100171.47;6283479;20;3734826;-54
2022/12/21 08:12:22;;;;;;;;;96.00;69.67;;;;;0.94;97.50;100171.03;6316902;20;3672223;-55
2022/12/21 08:14:51;;;;;;;;;88.33;68.00;;;;;0.73;97.08;100171.31;6282286;20;3651312;-55
2022/12/21 08:17:21;;;;;;;;;88.33;66.67;;;;;0.50;97.75;100179.53;6315022;20;3648244;-54
2022/12/21 08:19:52;;;;;;;;;99.00;71.67;;;;;0.69;97.32;100181.06;6314757;20;3662776;-53
2022/12/21 08:22:22;;;;;;;;;96.33;76.33;;;;;0.89;97.98;100162.28;6316960;20;3648190;-54
2022/12/21 08:24:51;;;;;;;;;100.67;83.00;;;;;0.62;97.12;100180.25;6315658;20;3678407;-53
2022/12/21 08:27:21;;;;;;;;;94.67;81.67;;;;;0.71;97.18;100191.59;6285967;20;2885733;-52
2022/12/21 08:29:51;;;;;;;;;95.33;74.33;;;;;0.74;96.32;100178.34;6313593;20;3647128;-54
2022/12/21 08:32:20;;;;;;;;;78.67;60.00;;;;;0.97;96.10;100170.97;6315023;20;3641902;-52
2022/12/21 08:34:50;;;;;;;;;257.75;179.75;;;;;1.02;96.25;100165.63;6314439;20;4473167;-55
2022/12/21 08:37:19;;;;;;;;;179.50;139.00;;;;;1.11;95.39;100165.50;6306722;20;1961767;-54
2022/12/21 08:39:48;;;;;;;;;236.00;171.25;;;;;1.08;93.50;100163.78;6282131;20;4447268;-58
2022/12/21 08:42:18;;;;;;;;;104.67;77.67;;;;;1.02;93.17;100170.91;6318191;20;3691968;-55
2022/12/21 08:44:48;;;;;;;;;67.33;56.33;;;;;0.74;92.92;100170.41;6284557;20;2861851;-57
2022/12/21 08:47:17;;;;;;;;;181.50;134.00;;;;;0.75;94.20;100159.84;6315860;20;4478397;-55
2022/12/21 08:49:47;;;;;;;;;222.50;161.25;;;;;0.98;93.71;100161.28;6313337;20;4486746;-54
2022/12/21 08:52:16;;;;;;;;;91.67;67.00;;;;;0.81;93.17;100164.16;6315643;20;3648231;-53
2022/12/21 08:54:47;;;;;;;;;142.25;106.75;;;;;0.98;93.39;100154.22;6315859;20;4498210;-57
2022/12/21 08:57:16;;;;;;;;;94.00;65.00;;;;;0.80;93.18;100151.84;6282399;20;3657582;-55
2022/12/21 08:59:46;;;;;;;;;86.33;59.33;;;;;0.69;93.54;100149.38;6313565;20;3663835;-53
2022/12/21 09:02:17;;;;;;;;;88.67;63.33;;;;;0.83;94.35;100149.16;6313232;20;3653425;-54
2022/12/21 09:04:48;;;;;;;;;143.25;109.50;;;;;0.92;93.55;100151.66;6314349;20;4470231;-54
2022/12/21 09:07:18;;;;;;;;;110.00;96.33;;;;;0.95;93.79;100141.06;6282171;20;3678506;-56
2022/12/21 09:09:47;;;;;;;;;125.67;101.33;;;;;1.15;93.00;100142.50;6279665;20;3705951;-55
2022/12/21 09:12:17;;;;;;;;;102.67;80.33;;;;;1.11;92.61;100147.00;6284377;20;3695075;-52
2022/12/21 09:14:47;;;;;;;;;97.67;70.33;;;;;1.09;92.52;100144.34;6283081;20;3688858;-56
2022/12/21 09:17:16;;;;;;;;;91.67;70.00;;;;;0.94;92.52;100139.28;6283069;20;3669039;-54
2022/12/21 09:19:46;;;;;;;;;99.00;80.67;;;;;0.79;93.46;100135.13;6312847;20;3670038;-55
2022/12/21 09:22:16;;;;;;;;;86.00;65.33;;;;;0.64;93.83;100146.78;6317159;20;3648169;-53
2022/12/21 09:24:45;;;;;;;;;93.67;68.33;;;;;0.80;93.67;100141.28;6313802;20;3649198;-54
2022/12/21 09:27:15;;;;;;;;;76.67;59.00;;;;;0.98;92.49;100135.72;6313104;20;3647130;-53
2022/12/21 09:29:44;;;;;;;;;80.50;57.50;;;;;0.95;91.92;100130.50;6309979;20;2882586;-52
2022/12/21 09:32:14;;;;;;;;;84.33;61.67;;;;;0.75;92.67;100132.53;6284851;20;3660664;-55
2022/12/21 09:34:44;;;;;;;;;75.67;60.67;;;;;0.85;92.50;100135.03;6312591;20;2876444;-55
2022/12/21 09:37:13;;;;;;;;;71.67;56.67;;;;;1.08;92.28;100132.03;6316895;20;3631491;-55
2022/12/21 09:39:52;;;;;;;;;53.00;40.67;;;;;1.02;90.83;100132.13;6312470;20;2879464;-54
2022/12/21 09:42:54;;;;;;;;;77.33;56.67;;;;;1.01;91.24;100119.81;6315641;20;2887970;-55
2022/12/21 09:45:51;;;;;;;;;91.33;64.33;;;;;0.95;91.37;100117.28;6314399;20;3656520;-48
2022/12/21 09:48:36;;;;;;;;;78.00;59.33;;;;;1.21;90.57;100115.94;6313063;20;3639861;-49
2022/12/21 09:51:17;;;;;;;;;77.00;59.00;;;;;1.43;89.42;100114.72;6312664;20;2888903;-56
2022/12/21 09:54:28;;;;;;;;;73.00;54.50;;;;;1.44;89.36;100111.16;6310354;20;3588853;-55
2022/12/21 09:57:17;;;;;;;;;71.67;54.00;;;;;0.98;88.87;100104.00;6310754;20;2871146;-57
2022/12/21 09:59:47;;;;;;;;;70.00;52.33;;;;;0.98;89.47;100098.72;6308619;20;2876425;-55
2022/12/21 10:02:29;;;;;;;;;76.00;56.00;;;;;0.88;89.94;100091.81;6311452;20;2892085;-54
2022/12/21 10:05:47;;;;;;;;;71.00;55.00;;;;;1.15;89.70;100101.06;6311809;20;2859728;-55
2022/12/21 10:09:16;;;;;;;;;76.67;58.00;;;;;1.03;89.79;100096.88;6283149;20;2881663;-55
2022/12/21 10:12:20;;;;;;;;;62.00;49.50;;;;;1.10;89.12;100087.91;6309599;20;2857562;-57
2022/12/21 10:15:27;;;;;;;;;83.00;61.00;;;;;1.02;89.98;100089.81;6279808;20;2771197;-55
2022/12/21 10:19:07;;;;;;;;;72.50;59.00;;;;;1.22;90.43;100093.91;6279846;20;2875697;-56
2022/12/21 10:22:14;;;;;;;;;60.50;51.00;;;;;1.26;89.58;100080.63;6281316;20;2852412;-56
2022/12/21 10:25:10;;;;;;;;;81.50;59.00;;;;;1.14;89.68;100090.53;6280106;20;2885786;-54
2022/12/21 10:27:52;;;;;;;;;317.00;218.00;;;;;1.20;89.76;100078.06;6278391;20;3729521;-54
2022/12/21 10:30:21;;;;;;;;;95.33;70.33;;;;;1.04;90.32;100071.28;6275552;20;3654417;-57
2022/12/21 10:32:51;;;;;;;;;93.67;64.67;;;;;0.81;92.04;100069.00;6314289;20;3654429;-52
2022/12/21 10:35:34;;;;;;;;;193.67;157.00;;;;;1.04;92.22;100071.28;6314012;20;3714863;-55
2022/12/21 10:38:15;;;;;;;;;113.00;105.33;;;;;1.00;91.80;100065.19;6280906;20;3686717;-54
2022/12/21 10:40:53;;;;;;;;;78.67;58.00;;;;;1.23;93.05;100054.19;6311331;20;2883675;-55
2022/12/21 10:43:23;;;;;;;;;92.67;68.00;;;;;1.12;91.98;100064.09;6312748;20;3649229;-55
2022/12/21 10:45:53;;;;;;;;;79.00;59.67;;;;;1.27;91.61;100062.97;6313244;20;2870246;-55
2022/12/21 10:48:22;;;;;;;;;74.00;58.50;;;;;1.01;91.47;100064.28;6312078;20;2867424;-55
2022/12/21 10:50:54;;;;;;;;;86.00;63.67;;;;;1.12;92.76;100064.09;6283204;20;3648167;-57
2022/12/21 10:53:26;;;;;;;;;100.67;82.67;;;;;1.30;91.59;100049.69;6311605;20;3689063;-55
2022/12/21 10:56:00;;;;;;;;;102.67;86.00;;;;;1.60;91.08;100065.91;6281881;20;3686727;-55
2022/12/21 10:58:35;;;;;;;;;107.67;79.67;;;;;1.58;89.72;100063.28;6276367;20;3680745;-57
2022/12/21 11:01:27;;;;;;;;;144.75;121.75;;;;;1.41;89.74;100066.22;6285408;20;4490862;-55
2022/12/21 11:04:26;;;;;;;;;84.00;62.00;;;;;1.01;90.57;100069.56;6279234;20;3666955;-55
2022/12/21 11:07:04;;;;;;;;;90.00;67.67;;;;;1.39;89.88;100060.09;6275425;20;3662777;-55
2022/12/21 11:10:01;;;;;;;;;79.00;51.67;;;;;1.28;89.90;100055.00;6308801;20;3644073;-56
2022/12/21 11:12:52;;;;;;;;;72.00;52.00;;;;;1.26;90.31;100048.00;6313121;20;3638283;-55
2022/12/21 11:15:24;;;;;;;;;68.00;45.67;;;;;1.07;91.28;100050.94;6312743;20;3647160;-54
2022/12/21 11:18:46;;;;;;;;;82.67;60.67;;;;;1.19;90.74;100049.03;6311442;20;3653557;-53
2022/12/21 11:21:38;;;;;;;;;82.25;62.25;;;;;1.31;90.55;100049.66;6309173;20;4391876;-55
2022/12/21 11:24:33;;;;;;;;;80.67;62.00;;;;;1.02;91.00;100036.94;6311291;20;3628436;-55
2022/12/21 11:27:18;;;;;;;;;79.00;58.33;;;;;1.04;90.90;100029.84;6311353;20;2882687;-55
2022/12/21 11:30:19;;;;;;;;;83.00;62.33;;;;;1.10;90.96;100028.88;6314456;20;3645070;-54
2022/12/21 11:32:53;;;;;;;;;92.67;68.00;;;;;1.14;92.16;100013.84;6313864;20;3641929;-54
2022/12/21 11:35:35;;;;;;;;;77.00;58.33;;;;;1.29;91.98;100018.84;6314752;20;3646073;-55
2022/12/21 11:38:15;;;;;;;;;99.00;74.33;;;;;1.27;92.86;100015.38;6315230;20;3672144;-55
2022/12/21 11:40:56;;;;;;;;;67.50;44.50;;;;;1.30;92.28;100015.31;6318518;20;2881596;-54
2022/12/21 11:43:26;;;;;;;;;90.00;66.67;;;;;1.28;92.35;100003.88;6282857;20;3642023;-52
2022/12/21 11:46:25;;;;;;;;;85.67;66.33;;;;;1.44;92.62;100001.81;6316951;20;3629426;-56
2022/12/21 11:49:39;;;;;;;;;94.33;71.00;;;;;1.54;91.66;100004.25;6314460;20;3651277;-56
2022/12/21 11:52:56;;;;;;;;;68.00;50.00;;;;;1.52;90.74;99994.59;6285708;20;2863898;-55
2022/12/21 11:55:54;;;;;;;;;168.50;141.25;;;;;1.42;90.58;99998.31;6281249;20;4492924;-54